Terminal Aerodrome Forecast
Issued by NWS

Home | Current Version | Previous Version | Text Only | Print | Product List | Glossary On
Versions: 1 2 3 4 5 6 7 8 9 10 11 12 13 14 15 16 17 18 19 20 21 22 23 24 25 26 27 28 29 30 31 32 33 34 35 36 37 38 39
000
FTUS42 KGSP 281732
TAFHKY
TAF
KHKY 281732Z 2818/2918 20005KT P6SM VCTS BKN045CB
      TEMPO 2818/2821 VRB10G18KT 2SM TSRA BKN030CB
     FM290000 00000KT P6SM BKN060
     FM290700 00000KT 5SM BR BKN070
     FM291100 00000KT 2SM BR BKN070
     FM291400 00000KT P6SM BKN060
     FM291600 17003KT P6SM BKN045=

USA.gov is the U.S. government's official web portal to all federal, state and local government web resources and services.